createdAt,value
2018-02-19T00:01:00.248Z,3.79
2018-02-19T00:03:29.355Z,3.86
2018-02-19T00:05:58.443Z,3.87
2018-02-19T00:08:27.531Z,3.77
2018-02-19T00:10:56.645Z,3.71
2018-02-19T00:13:25.726Z,3.69
2018-02-19T00:15:54.843Z,3.75
2018-02-19T00:18:23.932Z,3.78
2018-02-19T00:20:53.708Z,3.75
2018-02-19T00:23:23.587Z,3.74
2018-02-19T00:25:52.699Z,3.67
2018-02-19T00:28:22.547Z,3.62
2018-02-19T00:30:51.666Z,3.60
2018-02-19T00:33:20.759Z,3.61
2018-02-19T00:35:49.880Z,3.67
2018-02-19T00:38:19.753Z,3.71
2018-02-19T00:40:48.878Z,3.73
2018-02-19T00:43:17.985Z,3.73
2018-02-19T00:45:47.090Z,3.67
2018-02-19T00:48:16.984Z,3.69
2018-02-19T00:50:46.087Z,3.66
2018-02-19T00:53:15.190Z,3.65
2018-02-19T00:55:45.059Z,3.66
2018-02-19T00:58:14.277Z,3.65
2018-02-19T01:00:43.386Z,3.64
2018-02-19T01:03:12.487Z,3.66
2018-02-19T01:05:43.989Z,3.74
2018-02-19T01:08:13.092Z,3.79
2018-02-19T01:10:42.198Z,3.72
2018-02-19T01:13:11.292Z,3.72
2018-02-19T01:15:40.402Z,3.75
2018-02-19T01:18:09.519Z,3.69
2018-02-19T01:20:38.602Z,3.69
2018-02-19T01:23:07.709Z,3.72
2018-02-19T01:25:36.800Z,3.76
2018-02-19T01:28:05.944Z,3.91
2018-02-19T01:30:35.028Z,3.98
2018-02-19T01:33:04.205Z,3.95
2018-02-19T01:35:33.300Z,3.89
2018-02-19T01:38:03.165Z,3.84
2018-02-19T01:40:32.270Z,3.81
2018-02-19T01:43:01.587Z,3.78
2018-02-19T01:45:30.680Z,3.74
2018-02-19T01:47:59.770Z,3.73
2018-02-19T01:50:28.858Z,3.74
2018-02-19T01:52:58.758Z,3.71
2018-02-19T01:55:27.831Z,3.71
2018-02-19T01:57:56.948Z,3.73
2018-02-19T02:00:26.052Z,3.73
2018-02-19T02:02:55.158Z,3.66
2018-02-19T02:05:24.240Z,3.67
2018-02-19T02:07:53.373Z,3.64
2018-02-19T02:10:22.457Z,3.67
2018-02-19T02:12:51.565Z,3.66
2018-02-19T02:15:20.665Z,3.66
2018-02-19T02:17:49.798Z,3.65
2018-02-19T02:20:19.638Z,3.67
2018-02-19T02:22:48.734Z,3.69
2018-02-19T02:25:17.828Z,3.69
2018-02-19T02:27:46.925Z,3.75
2018-02-19T02:30:16.031Z,3.79
2018-02-19T02:32:45.114Z,3.85
2018-02-19T02:35:14.240Z,3.81
2018-02-19T02:37:43.333Z,3.82
2018-02-19T02:40:12.454Z,3.80
2018-02-19T02:42:42.303Z,3.78
2018-02-19T02:45:11.475Z,3.79
2018-02-19T02:47:41.339Z,3.83
2018-02-19T02:50:10.432Z,3.78
2018-02-19T02:52:39.538Z,3.81
2018-02-19T02:55:08.662Z,3.77
2018-02-19T02:57:37.747Z,3.77
2018-02-19T03:00:06.857Z,3.78
2018-02-19T03:02:36.740Z,3.80
2018-02-19T03:05:05.845Z,3.77
2018-02-19T03:07:34.920Z,3.83
2018-02-19T03:10:04.029Z,3.85
2018-02-19T03:12:34.321Z,3.94
2018-02-19T03:15:03.437Z,4.06
2018-02-19T03:17:32.523Z,4.11
2018-02-19T03:20:02.346Z,4.13
2018-02-19T03:22:31.450Z,4.21
2018-02-19T03:25:00.550Z,4.22
2018-02-19T03:27:29.658Z,4.27
2018-02-19T03:29:58.752Z,4.31
2018-02-19T03:32:27.861Z,4.16
2018-02-19T03:34:56.947Z,4.11
2018-02-19T03:37:26.093Z,4.07
2018-02-19T03:39:55.940Z,4.03
2018-02-19T03:42:25.029Z,4.08
2018-02-19T03:44:54.144Z,4.01
2018-02-19T03:47:23.231Z,3.97
2018-02-19T03:49:52.338Z,3.87
2018-02-19T03:52:21.418Z,3.86
2018-02-19T03:54:50.556Z,3.83
2018-02-19T03:57:20.914Z,3.90
2018-02-19T03:59:50.028Z,3.82
2018-02-19T04:02:19.110Z,3.75
2018-02-19T04:04:48.214Z,3.68
2018-02-19T04:07:17.308Z,3.65
2018-02-19T04:09:46.407Z,3.64
2018-02-19T04:12:15.497Z,3.66
2018-02-19T04:14:44.623Z,3.64
2018-02-19T04:17:13.722Z,3.56
2018-02-19T04:19:42.842Z,3.58
2018-02-19T04:22:11.934Z,3.57
2018-02-19T04:24:41.801Z,3.54
2018-02-19T04:27:10.911Z,3.51
2018-02-19T04:29:40.018Z,3.45
2018-02-19T04:32:09.145Z,3.40
2018-02-19T04:34:39.014Z,3.43
2018-02-19T04:37:08.130Z,3.37
2018-02-19T04:39:37.236Z,3.40
2018-02-19T04:42:06.338Z,3.31
2018-02-19T04:44:48.030Z,3.28
2018-02-19T04:47:17.902Z,3.25
2018-02-19T04:49:46.985Z,3.20
2018-02-19T04:52:16.107Z,3.17
2018-02-19T04:54:45.197Z,3.22
2018-02-19T04:57:14.312Z,3.14
2018-02-19T04:59:43.435Z,3.11
2018-02-19T05:02:13.305Z,3.17
2018-02-19T05:04:42.417Z,3.17
2018-02-19T05:07:13.040Z,3.12
2018-02-19T05:09:42.145Z,3.22
2018-02-19T05:12:11.229Z,3.38
2018-02-19T05:14:40.348Z,3.50
2018-02-19T05:17:09.439Z,3.57
2018-02-19T05:19:38.547Z,3.52
2018-02-19T05:22:08.403Z,3.56
2018-02-19T05:24:37.536Z,3.57
2018-02-19T05:27:06.624Z,3.52
2018-02-19T05:29:35.732Z,3.51
2018-02-19T05:32:04.824Z,3.53
2018-02-19T05:34:33.948Z,3.49
2018-02-19T05:37:03.802Z,3.46
2018-02-19T05:39:32.920Z,3.51
2018-02-19T05:42:02.018Z,3.48
2018-02-19T05:44:31.118Z,3.54
2018-02-19T05:47:00.243Z,3.56
2018-02-19T05:49:29.334Z,3.37
2018-02-19T05:51:59.218Z,3.27
2018-02-19T05:54:28.326Z,3.45
2018-02-19T05:56:57.436Z,3.55
2018-02-19T05:59:26.550Z,3.50
2018-02-19T06:01:56.450Z,3.40
2018-02-19T06:04:25.877Z,3.29
2018-02-19T06:06:54.987Z,3.26
2018-02-19T06:09:24.071Z,3.25
2018-02-19T06:11:53.189Z,3.15
2018-02-19T06:14:22.276Z,3.07
2018-02-19T06:16:51.393Z,3.16
2018-02-19T06:19:20.483Z,3.29
2018-02-19T06:21:49.594Z,3.34
2018-02-19T06:24:18.716Z,3.38
2018-02-19T06:26:47.826Z,3.42
2018-02-19T06:29:17.701Z,3.46
2018-02-19T06:31:47.139Z,3.41
2018-02-19T06:34:17.015Z,3.32
2018-02-19T06:36:46.132Z,3.30
2018-02-19T06:39:15.241Z,3.29
2018-02-19T06:41:45.102Z,3.48
2018-02-19T06:44:14.214Z,3.53
2018-02-19T06:46:43.360Z,3.58
2018-02-19T06:49:13.250Z,3.56
2018-02-19T06:51:42.355Z,3.39
2018-02-19T06:54:12.060Z,3.39
2018-02-19T06:56:41.158Z,3.32
2018-02-19T06:59:10.257Z,3.30
2018-02-19T07:01:39.358Z,3.41
2018-02-19T07:04:08.468Z,3.32
2018-02-19T07:06:38.338Z,3.16
2018-02-19T07:09:07.447Z,3.17
2018-02-19T07:11:36.576Z,3.20
2018-02-19T07:14:06.430Z,3.27
2018-02-19T07:16:35.532Z,3.26
2018-02-19T07:19:04.642Z,3.33
2018-02-19T07:21:33.752Z,3.25
2018-02-19T07:24:02.874Z,3.25
2018-02-19T07:26:32.743Z,3.19
2018-02-19T07:29:01.849Z,3.28
2018-02-19T07:31:30.954Z,3.29
2018-02-19T07:34:00.095Z,3.47
2018-02-19T07:36:29.198Z,3.54
2018-02-19T07:38:58.320Z,3.52
2018-02-19T07:41:28.211Z,3.49
2018-02-19T07:43:57.306Z,3.41
2018-02-19T07:46:26.397Z,3.44
2018-02-19T07:48:55.560Z,3.46
2018-02-19T07:51:24.668Z,3.47
2018-02-19T07:53:54.533Z,3.55
2018-02-19T07:56:23.657Z,3.53
2018-02-19T07:58:52.736Z,3.53
2018-02-19T08:01:21.867Z,3.58
2018-02-19T08:03:51.713Z,3.65
2018-02-19T08:06:20.846Z,3.62
2018-02-19T08:08:50.791Z,3.55
2018-02-19T08:11:20.674Z,3.74
2018-02-19T08:13:49.757Z,3.61
2018-02-19T08:16:18.906Z,3.63
2018-02-19T08:18:48.762Z,3.68
2018-02-19T08:21:17.858Z,3.66
2018-02-19T08:23:47.005Z,3.69
2018-02-19T08:26:16.090Z,3.87
2018-02-19T08:28:45.973Z,3.80
2018-02-19T08:31:15.073Z,3.75
2018-02-19T08:33:44.209Z,3.76
2018-02-19T08:36:14.078Z,3.88
2018-02-19T08:38:43.173Z,3.87
2018-02-19T08:41:12.289Z,4.09
2018-02-19T08:43:41.428Z,4.22
2018-02-19T08:46:11.328Z,4.27
2018-02-19T08:48:41.183Z,4.29
2018-02-19T08:51:10.298Z,4.28
2018-02-19T08:53:39.635Z,4.33
2018-02-19T08:56:08.750Z,4.29
2018-02-19T08:58:38.564Z,4.30
2018-02-19T09:01:07.668Z,4.32
2018-02-19T09:03:36.782Z,4.32
2018-02-19T09:06:05.889Z,4.36
2018-02-19T09:08:34.970Z,4.36
2018-02-19T09:11:04.070Z,4.44
2018-02-19T09:13:33.185Z,4.33
2018-02-19T09:16:02.308Z,4.26
2018-02-19T09:18:31.406Z,4.36
2018-02-19T09:21:01.294Z,4.43
2018-02-19T09:23:30.385Z,4.48
2018-02-19T09:25:59.799Z,4.54
2018-02-19T09:28:28.894Z,4.41
2018-02-19T09:30:58.837Z,4.27
2018-02-19T09:33:28.710Z,4.28
2018-02-19T09:35:57.890Z,4.27
2018-02-19T09:38:26.990Z,4.33
2018-02-19T09:40:57.157Z,4.42
2018-02-19T09:43:26.245Z,4.48
2018-02-19T09:45:56.298Z,4.36
2018-02-19T09:48:25.443Z,4.47
2018-02-19T09:50:54.769Z,4.57
2018-02-19T09:53:24.663Z,4.64
2018-02-19T09:55:53.756Z,4.64
2018-02-19T09:58:22.907Z,4.68
2018-02-19T10:00:52.009Z,4.82
2018-02-19T10:03:21.114Z,4.93
2018-02-19T10:05:50.246Z,4.88
2018-02-19T10:08:19.352Z,4.86
2018-02-19T10:10:48.467Z,4.94
2018-02-19T10:13:18.330Z,4.94
2018-02-19T10:15:47.462Z,4.92
2018-02-19T10:18:16.559Z,4.86
2018-02-19T10:20:45.670Z,4.89
2018-02-19T10:23:15.546Z,4.84
2018-02-19T10:25:44.647Z,4.98
2018-02-19T10:28:13.741Z,4.97
2018-02-19T10:30:42.878Z,5.09
2018-02-19T10:33:12.770Z,5.08
2018-02-19T10:35:41.866Z,5.13
2018-02-19T10:38:10.966Z,5.13
2018-02-19T10:40:40.095Z,5.14
2018-02-19T10:43:09.191Z,5.19
2018-02-19T10:45:38.319Z,5.25
2018-02-19T10:48:07.433Z,5.32
2018-02-19T10:50:36.553Z,5.34
2018-02-19T10:53:05.645Z,5.23
2018-02-19T10:55:34.744Z,5.38
2018-02-19T10:58:03.856Z,5.30
2018-02-19T11:00:39.215Z,5.26
2018-02-19T11:03:09.083Z,5.22
2018-02-19T11:05:38.215Z,5.20
2018-02-19T11:08:08.060Z,5.27
2018-02-19T11:10:37.175Z,5.33
2018-02-19T11:13:06.286Z,5.20
2018-02-19T11:15:35.388Z,5.25
2018-02-19T11:18:06.021Z,5.28
2018-02-19T11:20:35.113Z,5.24
2018-02-19T11:23:04.241Z,5.20
2018-02-19T11:25:34.101Z,5.19
2018-02-19T11:28:03.244Z,5.24
2018-02-19T11:30:33.115Z,5.15
2018-02-19T11:33:02.216Z,5.14
2018-02-19T11:35:31.314Z,5.19
2018-02-19T11:38:00.437Z,5.23
2018-02-19T11:40:31.127Z,5.36
2018-02-19T11:43:00.202Z,5.45
2018-02-19T11:45:29.298Z,5.40
2018-02-19T11:47:58.437Z,5.41
2018-02-19T11:50:27.554Z,5.30
2018-02-19T11:52:57.432Z,5.28
2018-02-19T11:55:26.550Z,5.29
2018-02-19T11:57:55.681Z,5.21
2018-02-19T12:00:25.550Z,5.21
2018-02-19T12:02:54.652Z,5.33
2018-02-19T12:05:23.743Z,5.37
2018-02-19T12:07:52.973Z,5.33
2018-02-19T12:10:22.067Z,5.30
2018-02-19T12:12:51.195Z,5.26
2018-02-19T12:15:20.279Z,5.20
2018-02-19T12:17:49.406Z,5.28
2018-02-19T12:20:18.479Z,5.27
2018-02-19T12:22:47.593Z,5.22
2018-02-19T12:25:16.705Z,5.28
2018-02-19T12:27:45.829Z,5.20
2018-02-19T12:30:14.935Z,5.33
2018-02-19T12:32:44.061Z,5.38
2018-02-19T12:35:13.906Z,5.42
2018-02-19T12:37:43.029Z,5.49
2018-02-19T12:40:12.124Z,5.42
2018-02-19T12:42:41.260Z,5.33
2018-02-19T12:45:11.176Z,5.21
2018-02-19T12:47:40.254Z,5.16
2018-02-19T12:50:09.358Z,5.13
2018-02-19T12:52:39.226Z,5.10
2018-02-19T12:55:08.359Z,5.01
2018-02-19T12:57:38.235Z,5.25
2018-02-19T13:00:07.368Z,5.23
2018-02-19T13:02:36.479Z,5.30
2018-02-19T13:05:05.617Z,5.21
2018-02-19T13:07:34.703Z,5.12
2018-02-19T13:10:03.825Z,5.06
2018-02-19T13:12:33.698Z,4.94
2018-02-19T13:15:02.850Z,5.03
2018-02-19T13:17:31.911Z,4.97
2018-02-19T13:20:01.038Z,4.86
2018-02-19T13:22:30.135Z,4.84
2018-02-19T13:24:59.259Z,4.90
2018-02-19T13:27:29.113Z,4.92
2018-02-19T13:29:58.245Z,4.83
2018-02-19T13:32:27.340Z,4.88
2018-02-19T13:34:56.453Z,4.83
2018-02-19T13:37:26.328Z,4.82
2018-02-19T13:39:56.188Z,4.85
2018-02-19T13:42:26.695Z,4.80
2018-02-19T13:44:55.794Z,4.91
2018-02-19T13:47:24.942Z,4.94
2018-02-19T13:49:54.790Z,5.10
2018-02-19T13:52:23.940Z,4.99
2018-02-19T13:54:53.021Z,4.96
2018-02-19T13:57:22.909Z,5.00
2018-02-19T13:59:52.001Z,5.14
2018-02-19T14:02:21.152Z,5.27
2018-02-19T14:04:50.243Z,5.32
2018-02-19T14:07:19.358Z,5.28
2018-02-19T14:09:48.509Z,5.33
2018-02-19T14:12:17.609Z,5.17
2018-02-19T14:14:47.476Z,5.18
2018-02-19T14:17:16.595Z,5.12
2018-02-19T14:19:45.674Z,5.17
2018-02-19T14:22:14.793Z,5.14
2018-02-19T14:24:43.919Z,5.11
2018-02-19T14:27:13.768Z,5.12
2018-02-19T14:29:42.901Z,5.12
2018-02-19T14:32:12.010Z,5.17
2018-02-19T14:34:41.878Z,5.15
2018-02-19T14:37:10.995Z,5.19
2018-02-19T14:39:40.121Z,5.10
2018-02-19T14:42:10.003Z,5.15
2018-02-19T14:44:39.892Z,5.17
2018-02-19T14:47:09.006Z,5.09
2018-02-19T14:49:38.118Z,4.94
2018-02-19T14:52:07.255Z,4.88
2018-02-19T14:54:37.120Z,4.87
2018-02-19T14:57:06.254Z,4.89
2018-02-19T14:59:36.142Z,4.92
2018-02-19T15:02:05.252Z,4.84
2018-02-19T15:04:34.364Z,4.87
2018-02-19T15:07:04.229Z,4.97
2018-02-19T15:09:33.361Z,4.97
2018-02-19T15:12:03.248Z,5.03
2018-02-19T15:14:32.383Z,5.05
2018-02-19T15:17:02.234Z,5.09
2018-02-19T15:19:31.346Z,4.83
2018-02-19T15:22:00.470Z,4.75
2018-02-19T15:24:29.638Z,4.80
2018-02-19T15:26:58.686Z,4.73
2018-02-19T15:29:27.804Z,4.86
2018-02-19T15:31:56.916Z,4.83
2018-02-19T15:34:26.049Z,4.87
2018-02-19T15:36:55.153Z,4.74
2018-02-19T15:39:25.063Z,4.82
2018-02-19T15:41:54.973Z,4.79
2018-02-19T15:44:24.087Z,4.86
2018-02-19T15:46:53.974Z,4.66
2018-02-19T15:49:23.120Z,4.73
2018-02-19T15:51:52.291Z,4.68
2018-02-19T15:54:21.403Z,4.72
2018-02-19T15:56:50.592Z,4.79
2018-02-19T15:59:20.485Z,4.74
2018-02-19T16:01:49.628Z,4.67
2018-02-19T16:04:18.734Z,4.60
2018-02-19T16:06:47.888Z,4.60
2018-02-19T16:09:17.008Z,4.70
2018-02-19T16:11:46.903Z,4.67
2018-02-19T16:14:16.837Z,4.65
2018-02-19T16:16:45.934Z,4.68
2018-02-19T16:19:15.030Z,4.70
2018-02-19T16:21:44.163Z,4.65
2018-02-19T16:24:13.283Z,4.66
2018-02-19T16:26:42.433Z,4.69
2018-02-19T16:29:11.527Z,4.67
2018-02-19T16:31:40.615Z,4.74
2018-02-19T16:34:09.744Z,4.65
2018-02-19T16:36:38.833Z,4.61
2018-02-19T16:39:07.959Z,4.39
2018-02-19T16:41:37.069Z,4.34
2018-02-19T16:44:06.190Z,4.26
2018-02-19T16:46:35.287Z,4.22
2018-02-19T16:49:04.482Z,4.18
2018-02-19T16:51:34.325Z,4.22
2018-02-19T16:54:03.462Z,4.39
2018-02-19T16:56:33.374Z,4.49
2018-02-19T16:59:02.486Z,4.50
2018-02-19T17:01:32.369Z,4.57
2018-02-19T17:04:02.400Z,4.50
2018-02-19T17:06:31.561Z,4.42
2018-02-19T17:09:01.397Z,4.36
2018-02-19T17:11:30.514Z,4.25
2018-02-19T17:13:59.631Z,4.26
2018-02-19T17:16:28.794Z,4.19
2018-02-19T17:18:57.891Z,4.12
2018-02-19T17:21:27.030Z,4.09
2018-02-19T17:23:56.907Z,4.17
2018-02-19T17:26:26.161Z,4.07
2018-02-19T17:28:56.081Z,4.11
2018-02-19T17:31:25.947Z,4.05
2018-02-19T17:33:55.088Z,4.04
2018-02-19T17:36:24.961Z,4.10
2018-02-19T17:38:54.054Z,4.11
2018-02-19T17:41:23.178Z,4.04
2018-02-19T17:43:52.943Z,4.02
2018-02-19T17:46:22.091Z,4.12
2018-02-19T17:48:51.996Z,4.17
2018-02-19T17:51:21.124Z,4.13
2018-02-19T17:53:51.077Z,4.10
2018-02-19T17:56:20.171Z,4.11
2018-02-19T17:58:49.360Z,4.20
2018-02-19T18:01:18.540Z,4.08
2018-02-19T18:03:48.412Z,4.02
2018-02-19T18:06:17.517Z,3.94
2018-02-19T18:08:46.701Z,3.93
2018-02-19T18:11:15.814Z,3.92
2018-02-19T18:13:44.953Z,3.91
2018-02-19T18:16:14.791Z,3.91
2018-02-19T18:18:43.909Z,3.81
2018-02-19T18:21:14.541Z,3.79
2018-02-19T18:23:43.668Z,3.79
2018-02-19T18:26:13.592Z,3.76
2018-02-19T18:28:43.491Z,3.71
2018-02-19T18:31:12.634Z,3.71
2018-02-19T18:33:41.771Z,3.70
2018-02-19T18:36:10.892Z,3.64
2018-02-19T18:38:40.018Z,3.66
2018-02-19T18:41:09.129Z,3.69
2018-02-19T18:43:38.263Z,3.70
2018-02-19T18:46:07.389Z,3.65
2018-02-19T18:48:37.438Z,3.62
2018-02-19T18:51:06.554Z,3.62
2018-02-19T18:53:35.675Z,3.61
2018-02-19T18:56:05.532Z,3.56
2018-02-19T18:58:34.656Z,3.57
2018-02-19T19:01:03.805Z,3.59
2018-02-19T19:03:33.700Z,3.59
2018-02-19T19:06:02.802Z,3.53
2018-02-19T19:08:50.416Z,3.55
2018-02-19T19:11:19.544Z,3.66
2018-02-19T19:13:48.713Z,3.66
2018-02-19T19:16:17.829Z,3.58
2018-02-19T19:18:47.716Z,3.53
2018-02-19T19:21:16.848Z,3.54
2018-02-19T19:23:45.957Z,3.49
2018-02-19T19:26:15.116Z,3.48
2018-02-19T19:28:44.230Z,3.50
2018-02-19T19:31:14.118Z,3.55
2018-02-19T19:33:44.045Z,3.77
2018-02-19T19:36:13.166Z,3.67
2018-02-19T19:38:42.295Z,3.69
2018-02-19T19:41:11.435Z,3.65
2018-02-19T19:43:41.667Z,3.68
2018-02-19T19:46:11.579Z,3.80
2018-02-19T19:48:41.472Z,3.76
2018-02-19T19:51:10.616Z,3.73
2018-02-19T19:53:39.735Z,3.86
2018-02-19T19:56:09.815Z,3.77
2018-02-19T19:58:39.909Z,3.74
2018-02-19T20:01:09.026Z,3.86
2018-02-19T20:03:38.935Z,3.83
2018-02-19T20:06:08.805Z,3.83
2018-02-19T20:08:38.002Z,3.81
2018-02-19T20:11:07.139Z,3.73
2018-02-19T20:13:37.036Z,3.75
2018-02-19T20:16:06.167Z,3.77
2018-02-19T20:18:35.339Z,3.65
2018-02-19T20:21:04.401Z,3.55
2018-02-19T20:23:33.533Z,3.51
2018-02-19T20:26:02.671Z,3.42
2018-02-19T20:28:31.822Z,3.37
2018-02-19T20:31:01.716Z,3.29
2018-02-19T20:33:30.839Z,3.32
2018-02-19T20:35:59.972Z,3.31
2018-02-19T20:38:29.095Z,3.30
2018-02-19T20:40:58.245Z,3.38
2018-02-19T20:43:28.139Z,3.43
2018-02-19T20:45:57.251Z,3.41
2018-02-19T20:48:27.139Z,3.37
2018-02-19T20:50:56.281Z,3.29
2018-02-19T20:53:25.366Z,3.30
2018-02-19T20:55:54.513Z,3.23
2018-02-19T20:58:23.651Z,3.20
2018-02-19T21:00:53.542Z,3.17
2018-02-19T21:03:22.694Z,3.10
2018-02-19T21:05:52.574Z,3.10
2018-02-19T21:08:22.483Z,3.10
2018-02-19T21:10:51.641Z,3.17
2018-02-19T21:13:20.728Z,3.22
2018-02-19T21:15:49.885Z,3.26
2018-02-19T21:18:19.772Z,3.26
2018-02-19T21:20:48.902Z,3.20
2018-02-19T21:23:18.771Z,3.15
2018-02-19T21:25:47.899Z,3.16
2018-02-19T21:28:17.774Z,3.08
2018-02-19T21:30:46.931Z,3.02
2018-02-19T21:33:16.785Z,3.06
2018-02-19T21:35:45.990Z,3.00
2018-02-19T21:38:15.102Z,2.95
2018-02-19T21:40:44.228Z,2.94
2018-02-19T21:43:14.126Z,2.93
2018-02-19T21:45:43.249Z,2.90
2018-02-19T21:48:12.365Z,2.84
2018-02-19T21:50:41.530Z,2.89
2018-02-19T21:53:11.405Z,2.78
2018-02-19T21:55:40.535Z,2.83
2018-02-19T21:58:10.394Z,2.91
2018-02-19T22:00:39.487Z,2.84
2018-02-19T22:03:08.646Z,2.82
2018-02-19T22:05:38.521Z,2.97
2018-02-19T22:08:07.652Z,2.83
2018-02-19T22:10:37.696Z,2.84
2018-02-19T22:13:07.588Z,2.81
2018-02-19T22:15:37.509Z,2.74
2018-02-19T22:18:07.395Z,2.73
2018-02-19T22:20:36.494Z,2.68
2018-02-19T22:23:05.631Z,2.65
2018-02-19T22:25:34.761Z,2.62
2018-02-19T22:28:04.110Z,2.57
2018-02-19T22:30:33.668Z,2.59
2018-02-19T22:33:02.835Z,2.59
2018-02-19T22:35:32.062Z,2.56
2018-02-19T22:38:01.162Z,2.51
2018-02-19T22:40:31.019Z,2.45
2018-02-19T22:43:00.871Z,2.38
2018-02-19T22:45:29.990Z,2.29
2018-02-19T22:47:59.831Z,2.28
2018-02-19T22:50:29.745Z,2.24
2018-02-19T22:52:58.843Z,2.21
2018-02-19T22:55:27.962Z,2.24
2018-02-19T22:57:57.841Z,2.24
2018-02-19T23:00:26.955Z,2.25
2018-02-19T23:02:56.808Z,2.20
2018-02-19T23:05:25.928Z,2.16
2018-02-19T23:07:55.075Z,2.13
2018-02-19T23:10:24.164Z,2.16
2018-02-19T23:12:53.280Z,2.41
2018-02-19T23:15:23.246Z,2.40
2018-02-19T23:17:52.368Z,2.56
2018-02-19T23:20:23.357Z,2.47
2018-02-19T23:22:52.480Z,2.39
2018-02-19T23:25:21.569Z,2.23
2018-02-19T23:27:50.673Z,2.13
2018-02-19T23:30:20.282Z,1.99
2018-02-19T23:32:49.422Z,2.07
2018-02-19T23:35:18.509Z,1.99
2018-02-19T23:37:47.642Z,1.86
2018-02-19T23:40:16.762Z,1.78
2018-02-19T23:42:45.855Z,1.76
2018-02-19T23:45:14.965Z,1.76
2018-02-19T23:47:44.055Z,1.70
2018-02-19T23:50:13.171Z,1.59
2018-02-19T23:52:43.027Z,1.58
2018-02-19T23:55:12.172Z,1.61
2018-02-19T23:57:41.258Z,1.54
